createdAt,value
2018-09-19T00:00:11.883Z,3.87
2018-09-19T00:02:40.689Z,5.37
2018-09-19T00:05:09.532Z,4.63
2018-09-19T00:07:38.168Z,4.60
2018-09-19T00:10:07.030Z,4.80
2018-09-19T00:12:35.707Z,5.03
2018-09-19T00:15:04.704Z,5.93
2018-09-19T00:17:33.332Z,9.67
2018-09-19T00:20:02.104Z,9.10
2018-09-19T00:22:30.827Z,10.77
2018-09-19T00:24:59.480Z,12.10
2018-09-19T00:27:28.121Z,11.77
2018-09-19T00:29:56.844Z,12.77
2018-09-19T00:32:25.650Z,13.17
2018-09-19T00:34:54.659Z,15.00
2018-09-19T00:37:23.673Z,14.63
2018-09-19T00:39:52.588Z,16.27
2018-09-19T00:42:21.225Z,16.23
2018-09-19T00:44:49.852Z,18.07
2018-09-19T00:47:18.493Z,17.53
2018-09-19T00:49:47.146Z,17.70
2018-09-19T00:52:15.791Z,19.10
2018-09-19T00:54:44.701Z,19.70
2018-09-19T00:57:13.403Z,20.00
2018-09-19T00:59:42.023Z,18.67
2018-09-19T01:02:10.721Z,20.13
2018-09-19T01:04:39.390Z,18.93
2018-09-19T01:07:08.176Z,19.60
2018-09-19T01:09:36.842Z,19.97
2018-09-19T01:12:05.530Z,21.27
2018-09-19T01:14:34.354Z,20.20
2018-09-19T01:17:02.992Z,19.90
2018-09-19T01:19:31.704Z,20.97
2018-09-19T01:22:00.390Z,19.87
2018-09-19T01:24:29.202Z,21.57
2018-09-19T01:26:57.952Z,20.53
2018-09-19T01:29:26.588Z,22.17
2018-09-19T01:31:55.812Z,21.73
2018-09-19T01:34:24.458Z,22.00
2018-09-19T01:36:53.120Z,20.97
2018-09-19T01:39:21.922Z,20.77
2018-09-19T01:41:50.607Z,20.80
2018-09-19T01:44:19.260Z,18.87
2018-09-19T01:46:47.905Z,18.13
2018-09-19T01:49:16.807Z,17.70
2018-09-19T01:51:45.438Z,17.27
2018-09-19T01:54:14.086Z,15.90
2018-09-19T01:56:42.712Z,15.17
2018-09-19T01:59:11.340Z,13.13
2018-09-19T02:01:40.031Z,13.10
2018-09-19T02:04:08.770Z,12.90
2018-09-19T02:06:37.426Z,10.27
2018-09-19T02:09:09.362Z,10.07
2018-09-19T02:11:38.444Z,9.93
2018-09-19T02:14:07.434Z,9.37
2018-09-19T02:16:36.274Z,7.73
2018-09-19T02:19:04.922Z,7.50
2018-09-19T02:21:33.602Z,6.40
2018-09-19T02:24:02.254Z,6.57
2018-09-19T02:26:31.047Z,5.70
2018-09-19T02:28:59.834Z,6.27
2018-09-19T02:31:28.868Z,5.83
2018-09-19T02:33:57.691Z,5.77
2018-09-19T02:36:27.368Z,5.13
2018-09-19T02:38:57.319Z,5.93
2018-09-19T02:41:25.990Z,5.43
2018-09-19T02:43:54.645Z,5.57
2018-09-19T02:46:23.600Z,5.33
2018-09-19T02:48:52.281Z,5.20
2018-09-19T02:51:20.983Z,6.17
2018-09-19T02:53:49.789Z,5.50
2018-09-19T02:56:18.411Z,5.07
2018-09-19T02:58:47.083Z,5.30
2018-09-19T03:01:15.712Z,5.03
2018-09-19T03:03:44.337Z,5.20
2018-09-19T03:06:12.952Z,4.73
2018-09-19T03:08:41.902Z,4.90
2018-09-19T03:11:10.563Z,5.43
2018-09-19T03:13:39.216Z,4.97
2018-09-19T03:16:08.057Z,5.53
2018-09-19T03:18:36.664Z,6.27
2018-09-19T03:21:05.691Z,5.30
2018-09-19T03:23:34.658Z,4.43
2018-09-19T03:26:03.550Z,5.10
2018-09-19T03:28:32.250Z,4.73
2018-09-19T03:31:00.934Z,5.23
2018-09-19T03:33:29.724Z,4.43
2018-09-19T03:35:58.562Z,4.47
2018-09-19T03:38:27.226Z,4.37
2018-09-19T03:40:55.850Z,4.77
2018-09-19T03:43:24.549Z,4.40
2018-09-19T03:45:53.171Z,4.70
2018-09-19T03:48:22.110Z,5.00
2018-09-19T03:50:51.084Z,5.07
2018-09-19T03:53:19.744Z,5.07
2018-09-19T03:55:48.387Z,4.20
2018-09-19T03:58:17.043Z,4.60
2018-09-19T04:00:45.680Z,4.97
2018-09-19T04:03:14.316Z,4.77
2018-09-19T04:05:42.956Z,5.00
2018-09-19T04:08:11.580Z,3.93
2018-09-19T04:10:40.218Z,4.80
2018-09-19T04:13:08.873Z,4.63
2018-09-19T04:15:37.519Z,4.60
2018-09-19T04:18:06.237Z,4.80
2018-09-19T04:20:35.020Z,4.57
2018-09-19T04:23:03.686Z,4.97
2018-09-19T04:25:32.335Z,4.13
2018-09-19T04:28:01.199Z,4.40
2018-09-19T04:30:29.854Z,5.17
2018-09-19T04:32:58.505Z,4.83
2018-09-19T04:35:27.142Z,5.03
2018-09-19T04:37:55.773Z,5.00
2018-09-19T04:40:24.446Z,4.40
2018-09-19T04:42:53.114Z,4.70
2018-09-19T04:45:21.798Z,4.90
2018-09-19T04:47:50.478Z,4.40
2018-09-19T04:50:19.316Z,4.57
2018-09-19T04:52:47.973Z,4.10
2018-09-19T04:55:16.651Z,4.63
2018-09-19T04:57:45.290Z,4.90
2018-09-19T05:00:13.913Z,4.20
2018-09-19T05:02:42.656Z,4.50
2018-09-19T05:05:11.314Z,4.10
2018-09-19T05:07:40.036Z,4.97
2018-09-19T05:10:08.872Z,4.87
2018-09-19T05:12:37.720Z,4.33
2018-09-19T05:15:06.627Z,4.73
2018-09-19T05:17:35.267Z,4.50
2018-09-19T05:20:03.989Z,4.47
2018-09-19T05:22:32.615Z,4.63
2018-09-19T05:25:01.270Z,4.37
2018-09-19T05:27:29.908Z,4.83
2018-09-19T05:29:58.752Z,4.30
2018-09-19T05:32:27.405Z,3.90
2018-09-19T05:34:56.025Z,4.13
2018-09-19T05:37:24.782Z,4.23
2018-09-19T05:39:53.667Z,4.40
2018-09-19T05:42:22.949Z,4.20
2018-09-19T05:44:51.669Z,4.10
2018-09-19T05:47:20.371Z,4.20
2018-09-19T05:49:49.089Z,4.40
2018-09-19T05:52:17.767Z,4.33
2018-09-19T05:54:46.390Z,4.23
2018-09-19T05:57:15.053Z,4.37
2018-09-19T05:59:43.865Z,4.20
2018-09-19T06:02:12.519Z,4.50
2018-09-19T06:04:41.169Z,4.07
2018-09-19T06:07:09.796Z,4.57
2018-09-19T06:09:38.453Z,4.47
2018-09-19T06:12:07.481Z,4.73
2018-09-19T06:14:36.213Z,5.33
2018-09-19T06:17:04.903Z,5.00
2018-09-19T06:19:33.785Z,4.40
2018-09-19T06:22:02.497Z,4.13
2018-09-19T06:24:31.297Z,4.03
2018-09-19T06:27:00.063Z,3.80
2018-09-19T06:29:28.949Z,3.83
2018-09-19T06:31:57.769Z,4.87
2018-09-19T06:34:26.778Z,4.70
2018-09-19T06:36:55.525Z,4.67
2018-09-19T06:39:24.280Z,4.43
2018-09-19T06:41:53.148Z,4.30
2018-09-19T06:44:21.785Z,4.70
2018-09-19T06:46:51.518Z,4.60
2018-09-19T06:49:20.140Z,4.50
2018-09-19T06:51:48.849Z,4.57
2018-09-19T06:54:17.479Z,4.53
2018-09-19T06:56:46.130Z,4.30
2018-09-19T06:59:15.707Z,4.70
2018-09-19T07:01:44.403Z,4.93
2018-09-19T07:04:13.379Z,4.10
2018-09-19T07:06:42.031Z,4.43
2018-09-19T07:09:11.429Z,4.27
2018-09-19T07:11:40.309Z,4.17
2018-09-19T07:14:08.948Z,3.80
2018-09-19T07:16:37.753Z,4.47
2018-09-19T07:19:06.784Z,3.80
2018-09-19T07:21:35.813Z,4.10
2018-09-19T07:24:04.487Z,4.57
2018-09-19T07:26:33.123Z,4.23
2018-09-19T07:29:01.952Z,4.17
2018-09-19T07:31:30.629Z,4.33
2018-09-19T07:34:00.980Z,4.00
2018-09-19T07:36:29.734Z,4.57
2018-09-19T07:38:58.408Z,4.30
2018-09-19T07:41:27.062Z,4.00
2018-09-19T07:43:55.677Z,3.80
2018-09-19T07:46:24.696Z,4.67
2018-09-19T07:48:53.429Z,4.40
2018-09-19T07:51:22.183Z,4.23
2018-09-19T07:53:51.649Z,3.37
2018-09-19T07:56:20.427Z,3.67
2018-09-19T07:58:49.145Z,4.20
2018-09-19T08:01:17.917Z,4.03
2018-09-19T08:03:46.836Z,3.57
2018-09-19T08:06:15.465Z,3.97
2018-09-19T08:08:44.108Z,3.63
2018-09-19T08:11:12.983Z,3.60
2018-09-19T08:13:41.691Z,3.50
2018-09-19T08:16:10.673Z,3.80
2018-09-19T08:18:39.331Z,4.13
2018-09-19T08:21:08.474Z,4.13
2018-09-19T08:23:37.310Z,3.73
2018-09-19T08:26:06.006Z,3.97
2018-09-19T08:28:34.690Z,4.30
2018-09-19T08:31:03.356Z,3.40
2018-09-19T08:33:32.233Z,3.30
2018-09-19T08:36:02.185Z,2.73
2018-09-19T08:38:30.895Z,3.13
2018-09-19T08:40:59.722Z,3.40
2018-09-19T08:43:28.471Z,3.50
2018-09-19T08:45:57.276Z,3.63
2018-09-19T08:48:26.235Z,2.67
2018-09-19T08:50:54.920Z,2.73
2018-09-19T08:53:23.697Z,2.13
2018-09-19T08:55:52.503Z,2.67
2018-09-19T08:58:21.125Z,2.13
2018-09-19T09:00:49.799Z,2.60
2018-09-19T09:03:18.481Z,2.70
2018-09-19T09:05:47.522Z,2.20
2018-09-19T09:08:16.128Z,2.43
2018-09-19T09:10:44.905Z,2.50
2018-09-19T09:13:14.012Z,2.57
2018-09-19T09:15:42.802Z,2.43
2018-09-19T09:18:11.488Z,2.23
2018-09-19T09:20:40.816Z,2.20
2018-09-19T09:23:09.689Z,2.43
2018-09-19T09:25:38.348Z,2.13
2018-09-19T09:28:07.027Z,2.47
2018-09-19T09:30:35.834Z,2.67
2018-09-19T09:33:04.535Z,2.70
2018-09-19T09:35:33.204Z,2.87
2018-09-19T09:38:01.884Z,2.33
2018-09-19T09:40:30.785Z,3.00
2018-09-19T09:42:59.617Z,2.83
2018-09-19T09:45:28.371Z,2.23
2018-09-19T09:47:56.988Z,2.50
2018-09-19T09:50:25.740Z,3.00
2018-09-19T09:52:54.415Z,3.00
2018-09-19T09:55:23.208Z,2.77
2018-09-19T09:57:51.878Z,2.83
2018-09-19T10:00:25.838Z,2.33
2018-09-19T10:02:54.582Z,2.47
2018-09-19T10:05:23.491Z,2.53
2018-09-19T10:07:52.140Z,2.53
2018-09-19T10:10:20.778Z,2.60
2018-09-19T10:12:49.616Z,2.97
2018-09-19T10:15:18.272Z,2.63
2018-09-19T10:17:46.985Z,2.73
2018-09-19T10:20:15.687Z,3.17
2018-09-19T10:22:44.334Z,3.00
2018-09-19T10:25:13.471Z,2.80
2018-09-19T10:27:42.172Z,3.10
2018-09-19T10:30:10.839Z,3.23
2018-09-19T10:32:39.511Z,3.10
2018-09-19T10:35:08.258Z,2.50
2018-09-19T10:37:38.374Z,3.17
2018-09-19T10:40:07.302Z,2.70
2018-09-19T10:42:35.961Z,3.30
2018-09-19T10:45:05.229Z,3.37
2018-09-19T10:47:33.887Z,2.90
2018-09-19T10:50:02.568Z,2.80
2018-09-19T10:52:31.256Z,3.03
2018-09-19T10:54:59.876Z,2.70
2018-09-19T10:57:28.506Z,3.57
2018-09-19T10:59:57.447Z,3.00
2018-09-19T11:02:26.142Z,3.10
2018-09-19T11:04:55.050Z,3.40
2018-09-19T11:07:23.906Z,3.60
2018-09-19T11:09:52.554Z,3.30
2018-09-19T11:12:21.207Z,3.27
2018-09-19T11:14:49.878Z,3.27
2018-09-19T11:17:18.580Z,3.57
2018-09-19T11:19:47.262Z,2.97
2018-09-19T11:22:15.909Z,3.40
2018-09-19T11:24:44.894Z,3.33
2018-09-19T11:27:13.547Z,3.33
2018-09-19T11:29:42.450Z,3.43
2018-09-19T11:32:11.646Z,3.60
2018-09-19T11:34:40.864Z,3.50
2018-09-19T11:37:09.577Z,4.20
2018-09-19T11:39:38.408Z,3.40
2018-09-19T11:42:07.294Z,3.57
2018-09-19T11:44:35.971Z,3.27
2018-09-19T11:47:04.599Z,3.83
2018-09-19T11:49:33.247Z,3.90
2018-09-19T11:52:01.978Z,4.07
2018-09-19T11:54:30.898Z,3.63
2018-09-19T11:56:59.554Z,3.30
2018-09-19T11:59:28.343Z,4.17
2018-09-19T12:01:57.033Z,3.90
2018-09-19T12:04:25.933Z,4.23
2018-09-19T12:06:54.779Z,4.13
2018-09-19T12:09:23.607Z,3.57
2018-09-19T12:11:52.260Z,3.63
2018-09-19T12:14:21.206Z,3.80
2018-09-19T12:16:50.050Z,4.13
2018-09-19T12:19:18.760Z,4.53
2018-09-19T12:21:47.578Z,4.00
2018-09-19T12:24:16.393Z,4.30
2018-09-19T12:26:45.154Z,3.53
2018-09-19T12:29:13.958Z,3.83
2018-09-19T12:31:42.628Z,3.90
2018-09-19T12:34:11.344Z,3.90
2018-09-19T12:36:40.331Z,3.87
2018-09-19T12:39:10.508Z,4.10
2018-09-19T12:41:39.578Z,3.93
2018-09-19T12:44:08.580Z,4.07
2018-09-19T12:46:37.524Z,3.77
2018-09-19T12:49:06.507Z,4.10
2018-09-19T12:51:35.167Z,3.97
2018-09-19T12:54:03.819Z,4.07
2018-09-19T12:56:32.539Z,4.37
2018-09-19T12:59:01.404Z,4.20
2018-09-19T13:01:30.256Z,4.30
2018-09-19T13:03:58.934Z,4.27
2018-09-19T13:06:27.665Z,3.50
2018-09-19T13:08:56.542Z,3.90
2018-09-19T13:11:25.276Z,3.57
2018-09-19T13:13:54.332Z,4.37
2018-09-19T13:16:23.195Z,4.20
2018-09-19T13:18:52.081Z,4.17
2018-09-19T13:21:20.715Z,4.10
2018-09-19T13:23:49.536Z,4.30
2018-09-19T13:26:18.348Z,3.73
2018-09-19T13:28:47.031Z,4.40
2018-09-19T13:31:15.678Z,3.93
2018-09-19T13:33:44.468Z,3.63
2018-09-19T13:36:13.286Z,3.67
2018-09-19T13:38:42.198Z,3.67
2018-09-19T13:41:10.847Z,3.67
2018-09-19T13:43:39.535Z,3.63
2018-09-19T13:46:09.286Z,4.10
2018-09-19T13:48:38.763Z,3.60
2018-09-19T13:51:14.103Z,3.27
2018-09-19T13:53:42.858Z,3.40
2018-09-19T13:56:11.682Z,3.27
2018-09-19T13:58:40.430Z,4.00
2018-09-19T14:01:09.224Z,3.10
2018-09-19T14:03:37.896Z,2.87
2018-09-19T14:06:06.830Z,3.20
2018-09-19T14:08:35.626Z,3.20
2018-09-19T14:11:04.346Z,2.57
2018-09-19T14:13:32.935Z,3.23
2018-09-19T14:16:01.669Z,3.30
2018-09-19T14:18:30.537Z,3.30
2018-09-19T14:20:59.252Z,3.37
2018-09-19T14:23:28.008Z,3.30
2018-09-19T14:25:56.715Z,3.13
2018-09-19T14:28:25.471Z,3.57
2018-09-19T14:30:54.116Z,3.20
2018-09-19T14:33:22.959Z,3.23
2018-09-19T14:35:51.919Z,3.40
2018-09-19T14:38:20.566Z,3.60
2018-09-19T14:40:49.330Z,3.50
2018-09-19T14:43:18.067Z,3.17
2018-09-19T14:45:46.749Z,3.50
2018-09-19T14:48:15.507Z,2.83
2018-09-19T14:50:44.213Z,2.97
2018-09-19T14:53:12.860Z,3.10
2018-09-19T14:55:41.531Z,3.50
2018-09-19T14:58:10.190Z,4.33
2018-09-19T15:00:38.981Z,3.27
2018-09-19T15:03:07.637Z,3.57
2018-09-19T15:05:36.335Z,3.17
2018-09-19T15:08:05.100Z,3.10
2018-09-19T15:10:33.907Z,3.10
2018-09-19T15:13:02.590Z,3.10
2018-09-19T15:15:31.355Z,3.00
2018-09-19T15:18:00.004Z,2.90
2018-09-19T15:20:28.805Z,3.50
2018-09-19T15:22:57.529Z,3.27
2018-09-19T15:25:26.147Z,2.93
2018-09-19T15:27:54.833Z,3.00
2018-09-19T15:30:23.656Z,2.97
2018-09-19T15:32:52.481Z,2.80
2018-09-19T15:35:21.221Z,3.20
2018-09-19T15:37:49.959Z,3.50
2018-09-19T15:40:18.729Z,3.90
2018-09-19T15:42:47.467Z,3.90
2018-09-19T15:45:16.433Z,13.73
2018-09-19T15:47:45.475Z,32.67
2018-09-19T15:50:14.207Z,40.03
2018-09-19T15:52:42.895Z,43.20
2018-09-19T15:55:11.561Z,45.87
2018-09-19T15:57:40.275Z,49.87
2018-09-19T16:00:09.172Z,49.63
2018-09-19T16:02:37.823Z,50.93
2018-09-19T16:05:06.537Z,48.57
2018-09-19T16:07:35.287Z,50.13
2018-09-19T16:10:04.007Z,47.97
2018-09-19T16:12:33.122Z,47.33
2018-09-19T16:15:01.952Z,43.60
2018-09-19T16:17:30.715Z,40.93
2018-09-19T16:19:59.581Z,36.87
2018-09-19T16:22:28.313Z,31.73
2018-09-19T16:24:57.171Z,28.73
2018-09-19T16:27:26.011Z,26.83
2018-09-19T16:29:54.689Z,24.40
2018-09-19T16:32:23.485Z,24.23
2018-09-19T16:34:52.326Z,23.77
2018-09-19T16:37:21.004Z,21.57
2018-09-19T16:39:49.729Z,22.07
2018-09-19T16:42:18.458Z,18.43
2018-09-19T16:44:47.235Z,17.27
2018-09-19T16:47:15.911Z,14.40
2018-09-19T16:49:44.627Z,13.10
2018-09-19T16:52:13.303Z,12.00
2018-09-19T16:54:41.960Z,9.80
2018-09-19T16:57:10.689Z,9.40
2018-09-19T16:59:39.443Z,8.27
2018-09-19T17:02:08.099Z,7.13
2018-09-19T17:04:36.830Z,7.30
2018-09-19T17:07:05.828Z,6.13
2018-09-19T17:09:34.482Z,6.60
2018-09-19T17:12:03.332Z,5.67
2018-09-19T17:14:32.179Z,5.00
2018-09-19T17:17:00.821Z,5.33
2018-09-19T17:19:29.698Z,4.57
2018-09-19T17:21:58.327Z,5.10
2018-09-19T17:24:27.003Z,3.90
2018-09-19T17:26:55.747Z,4.93
2018-09-19T17:29:24.513Z,4.30
2018-09-19T17:31:53.410Z,4.37
2018-09-19T17:34:22.173Z,4.10
2018-09-19T17:36:50.857Z,3.60
2018-09-19T17:39:19.736Z,4.03
2018-09-19T17:41:48.426Z,5.07
2018-09-19T17:44:17.159Z,5.83
2018-09-19T17:46:45.792Z,4.10
2018-09-19T17:49:14.589Z,4.10
2018-09-19T17:51:43.554Z,3.80
2018-09-19T17:54:12.384Z,3.70
2018-09-19T17:56:41.251Z,4.00
2018-09-19T17:59:09.896Z,3.80
2018-09-19T18:01:38.676Z,3.80
2018-09-19T18:04:07.743Z,3.83
2018-09-19T18:06:36.640Z,3.87
2018-09-19T18:09:06.438Z,4.43
2018-09-19T18:11:35.296Z,3.93
2018-09-19T18:14:03.984Z,4.30
2018-09-19T18:16:32.865Z,4.03
2018-09-19T18:19:02.642Z,3.50
2018-09-19T18:21:31.302Z,3.87
2018-09-19T18:23:59.962Z,3.97
2018-09-19T18:26:28.780Z,4.33
2018-09-19T18:28:57.536Z,3.93
2018-09-19T18:31:26.194Z,4.00
2018-09-19T18:33:55.109Z,3.80
2018-09-19T18:36:24.807Z,4.13
2018-09-19T18:38:53.487Z,4.23
2018-09-19T18:41:22.416Z,3.97
2018-09-19T18:43:51.087Z,3.37
2018-09-19T18:46:19.960Z,4.33
2018-09-19T18:48:48.663Z,3.77
2018-09-19T18:51:17.342Z,4.73
2018-09-19T18:53:46.261Z,3.87
2018-09-19T18:56:15.035Z,4.17
2018-09-19T18:58:43.904Z,3.93
2018-09-19T19:01:12.773Z,4.07
2018-09-19T19:03:41.626Z,4.10
2018-09-19T19:06:10.288Z,4.23
2018-09-19T19:08:39.079Z,4.57
2018-09-19T19:11:07.925Z,4.13
2018-09-19T19:13:36.989Z,4.13
2018-09-19T19:16:05.763Z,4.27
2018-09-19T19:18:34.522Z,4.70
2018-09-19T19:21:03.327Z,4.67
2018-09-19T19:23:32.137Z,3.77
2018-09-19T19:26:00.791Z,4.87
2018-09-19T19:28:29.587Z,4.33
2018-09-19T19:30:58.412Z,4.27
2018-09-19T19:33:27.115Z,4.00
2018-09-19T19:35:55.972Z,4.07
2018-09-19T19:38:24.685Z,4.23
2018-09-19T19:40:53.403Z,4.13
2018-09-19T19:43:22.303Z,4.43
2018-09-19T19:45:51.186Z,4.23
2018-09-19T19:48:19.856Z,4.30
2018-09-19T19:50:48.780Z,4.20
2018-09-19T19:53:17.949Z,3.83
2018-09-19T19:55:46.738Z,3.90
2018-09-19T19:58:15.446Z,4.67
2018-09-19T20:00:44.091Z,4.90
2018-09-19T20:03:12.807Z,5.37
2018-09-19T20:05:41.452Z,6.07
2018-09-19T20:08:10.134Z,6.70
2018-09-19T20:10:38.860Z,8.40
2018-09-19T20:13:07.928Z,7.73
2018-09-19T20:15:36.634Z,8.10
2018-09-19T20:18:05.342Z,9.17
2018-09-19T20:20:33.997Z,9.60
2018-09-19T20:23:02.679Z,9.70
2018-09-19T20:25:31.415Z,9.77
2018-09-19T20:28:00.074Z,11.27
2018-09-19T20:30:28.957Z,10.77
2018-09-19T20:32:58.042Z,11.93
2018-09-19T20:35:27.748Z,12.57
2018-09-19T20:37:56.487Z,14.47
2018-09-19T20:40:25.198Z,14.57
2018-09-19T20:42:53.892Z,14.70
2018-09-19T20:45:22.544Z,15.53
2018-09-19T20:47:51.803Z,15.60
2018-09-19T20:50:27.124Z,16.20
2018-09-19T20:52:55.825Z,15.70
2018-09-19T20:55:24.631Z,16.57
2018-09-19T20:57:53.451Z,15.20
2018-09-19T21:00:22.660Z,14.23
2018-09-19T21:02:51.609Z,13.37
2018-09-19T21:05:20.309Z,12.03
2018-09-19T21:07:49.117Z,12.27
2018-09-19T21:10:17.970Z,10.13
2018-09-19T21:12:46.674Z,10.10
2018-09-19T21:15:15.428Z,9.73
2018-09-19T21:17:44.598Z,9.60
2018-09-19T21:20:13.354Z,9.90
2018-09-19T21:22:42.353Z,10.00
2018-09-19T21:25:10.991Z,9.47
2018-09-19T21:27:39.776Z,9.87
2018-09-19T21:30:08.500Z,9.07
2018-09-19T21:32:37.219Z,7.73
2018-09-19T21:35:05.960Z,8.67
2018-09-19T21:37:34.651Z,7.67
2018-09-19T21:40:03.378Z,7.67
2018-09-19T21:42:32.073Z,7.23
2018-09-19T21:45:00.873Z,7.53
2018-09-19T21:47:29.691Z,7.63
2018-09-19T21:49:58.422Z,7.03
2018-09-19T21:52:27.172Z,7.47
2018-09-19T21:54:56.041Z,7.80
2018-09-19T21:57:24.723Z,7.90
2018-09-19T21:59:53.413Z,7.33
2018-09-19T22:02:22.204Z,7.07
2018-09-19T22:04:54.007Z,7.37
2018-09-19T22:07:22.752Z,6.73
2018-09-19T22:09:51.564Z,6.50
2018-09-19T22:12:20.216Z,6.33
2018-09-19T22:14:48.942Z,5.83
2018-09-19T22:17:17.617Z,6.23
2018-09-19T22:19:46.306Z,6.57
2018-09-19T22:22:14.951Z,6.97
2018-09-19T22:24:43.575Z,7.10
2018-09-19T22:27:12.300Z,7.63
2018-09-19T22:29:40.974Z,8.37
2018-09-19T22:32:09.710Z,8.20
2018-09-19T22:34:38.419Z,8.40
2018-09-19T22:37:07.083Z,7.93
2018-09-19T22:39:35.829Z,8.70
2018-09-19T22:42:04.433Z,9.60
2018-09-19T22:44:33.117Z,8.70
2018-09-19T22:47:04.650Z,10.17
2018-09-19T22:49:33.333Z,10.23
2018-09-19T22:52:02.019Z,9.97
2018-09-19T22:54:30.741Z,10.80
2018-09-19T22:56:59.495Z,10.70
2018-09-19T22:59:28.120Z,11.43
2018-09-19T23:01:56.813Z,12.90
2018-09-19T23:04:25.430Z,12.07
2018-09-19T23:06:54.181Z,11.63
2018-09-19T23:09:23.334Z,10.60
2018-09-19T23:11:52.323Z,10.10
2018-09-19T23:14:21.003Z,9.07
2018-09-19T23:16:49.819Z,9.27
2018-09-19T23:19:18.549Z,7.90
2018-09-19T23:21:47.527Z,6.53
2018-09-19T23:24:16.303Z,6.37
2018-09-19T23:26:44.933Z,5.30
2018-09-19T23:29:13.596Z,5.43
2018-09-19T23:31:42.339Z,4.90
2018-09-19T23:34:10.983Z,4.17
2018-09-19T23:36:39.614Z,4.40
2018-09-19T23:39:09.793Z,4.10
2018-09-19T23:41:38.442Z,3.80
2018-09-19T23:44:07.340Z,4.00
2018-09-19T23:46:36.214Z,3.57
2018-09-19T23:49:04.887Z,4.13
2018-09-19T23:51:33.561Z,4.13
2018-09-19T23:54:02.212Z,3.67
2018-09-19T23:56:30.914Z,4.30
2018-09-19T23:58:59.849Z,4.07
